sensor_id;sensor_type;location;lat;lon;timestamp;P1;durP1;ratioP1;P2;durP2;ratioP2
67130;SDS011;54051;53.464;49.532;2023-04-28T00:00:09;13.20;;;7.60;;
67130;SDS011;54051;53.464;49.532;2023-04-28T00:02:36;13.10;;;8.02;;
67130;SDS011;54051;53.464;49.532;2023-04-28T00:05:03;13.57;;;8.38;;
67130;SDS011;54051;53.464;49.532;2023-04-28T00:07:29;15.57;;;8.95;;
67130;SDS011;54051;53.464;49.532;2023-04-28T00:09:56;13.40;;;7.85;;
67130;SDS011;54051;53.464;49.532;2023-04-28T00:12:22;13.23;;;8.48;;
67130;SDS011;54051;53.464;49.532;2023-04-28T00:14:48;15.57;;;8.70;;
67130;SDS011;54051;53.464;49.532;2023-04-28T00:17:14;16.70;;;9.23;;
67130;SDS011;54051;53.464;49.532;2023-04-28T00:19:41;16.98;;;9.77;;
67130;SDS011;54051;53.464;49.532;2023-04-28T00:22:07;13.63;;;8.87;;
67130;SDS011;54051;53.464;49.532;2023-04-28T00:24:34;17.13;;;9.20;;
67130;SDS011;54051;53.464;49.532;2023-04-28T00:27:01;16.50;;;9.88;;
67130;SDS011;54051;53.464;49.532;2023-04-28T00:29:28;19.65;;;10.77;;
67130;SDS011;54051;53.464;49.532;2023-04-28T00:31:54;17.52;;;10.57;;
67130;SDS011;54051;53.464;49.532;2023-04-28T00:34:20;19.93;;;10.60;;
67130;SDS011;54051;53.464;49.532;2023-04-28T00:36:47;18.20;;;10.88;;
67130;SDS011;54051;53.464;49.532;2023-04-28T00:39:14;19.47;;;10.90;;
67130;SDS011;54051;53.464;49.532;2023-04-28T00:41:43;17.33;;;10.82;;
67130;SDS011;54051;53.464;49.532;2023-04-28T00:44:09;18.10;;;10.73;;
67130;SDS011;54051;53.464;49.532;2023-04-28T00:46:35;21.65;;;11.65;;
67130;SDS011;54051;53.464;49.532;2023-04-28T00:49:02;17.77;;;11.00;;
67130;SDS011;54051;53.464;49.532;2023-04-28T00:51:29;19.02;;;11.38;;
67130;SDS011;54051;53.464;49.532;2023-04-28T00:53:55;17.08;;;10.15;;
67130;SDS011;54051;53.464;49.532;2023-04-28T00:56:22;17.08;;;10.55;;
67130;SDS011;54051;53.464;49.532;2023-04-28T00:58:48;16.40;;;10.20;;
67130;SDS011;54051;53.464;49.532;2023-04-28T01:01:14;18.43;;;10.43;;
67130;SDS011;54051;53.464;49.532;2023-04-28T01:03:41;16.13;;;9.95;;
67130;SDS011;54051;53.464;49.532;2023-04-28T01:06:08;16.70;;;10.00;;
67130;SDS011;54051;53.464;49.532;2023-04-28T01:08:35;17.02;;;10.30;;
67130;SDS011;54051;53.464;49.532;2023-04-28T01:11:02;16.45;;;10.32;;
67130;SDS011;54051;53.464;49.532;2023-04-28T01:13:29;16.75;;;10.48;;
67130;SDS011;54051;53.464;49.532;2023-04-28T01:15:55;16.70;;;10.18;;
67130;SDS011;54051;53.464;49.532;2023-04-28T01:18:22;16.88;;;10.30;;
67130;SDS011;54051;53.464;49.532;2023-04-28T01:20:48;17.20;;;9.35;;
67130;SDS011;54051;53.464;49.532;2023-04-28T01:23:15;17.13;;;9.55;;
67130;SDS011;54051;53.464;49.532;2023-04-28T01:28:09;17.92;;;10.43;;
67130;SDS011;54051;53.464;49.532;2023-04-28T01:30:36;16.33;;;10.25;;
67130;SDS011;54051;53.464;49.532;2023-04-28T01:33:02;17.48;;;10.73;;
67130;SDS011;54051;53.464;49.532;2023-04-28T01:35:29;16.57;;;10.57;;
67130;SDS011;54051;53.464;49.532;2023-04-28T01:40:22;16.55;;;9.55;;
67130;SDS011;54051;53.464;49.532;2023-04-28T01:42:48;14.80;;;9.50;;
67130;SDS011;54051;53.464;49.532;2023-04-28T01:45:15;14.82;;;9.77;;
67130;SDS011;54051;53.464;49.532;2023-04-28T01:47:42;15.30;;;9.50;;
67130;SDS011;54051;53.464;49.532;2023-04-28T01:50:08;17.30;;;9.87;;
67130;SDS011;54051;53.464;49.532;2023-04-28T01:52:34;16.67;;;9.57;;
67130;SDS011;54051;53.464;49.532;2023-04-28T01:55:02;17.48;;;9.73;;
67130;SDS011;54051;53.464;49.532;2023-04-28T01:57:29;16.50;;;10.00;;
67130;SDS011;54051;53.464;49.532;2023-04-28T01:59:55;15.25;;;9.63;;
67130;SDS011;54051;53.464;49.532;2023-04-28T02:02:21;16.67;;;9.32;;
67130;SDS011;54051;53.464;49.532;2023-04-28T02:04:47;16.70;;;9.73;;
67130;SDS011;54051;53.464;49.532;2023-04-28T02:07:14;16.05;;;9.32;;
67130;SDS011;54051;53.464;49.532;2023-04-28T02:09:42;15.93;;;9.57;;
67130;SDS011;54051;53.464;49.532;2023-04-28T02:12:09;15.82;;;9.43;;
67130;SDS011;54051;53.464;49.532;2023-04-28T02:14:35;14.93;;;9.53;;
67130;SDS011;54051;53.464;49.532;2023-04-28T02:17:01;15.35;;;9.35;;
67130;SDS011;54051;53.464;49.532;2023-04-28T02:19:29;15.07;;;9.45;;
67130;SDS011;54051;53.464;49.532;2023-04-28T02:21:56;20.27;;;10.35;;
67130;SDS011;54051;53.464;49.532;2023-04-28T02:24:26;16.13;;;9.52;;
67130;SDS011;54051;53.464;49.532;2023-04-28T02:26:52;14.23;;;9.63;;
67130;SDS011;54051;53.464;49.532;2023-04-28T02:29:19;14.90;;;9.73;;
67130;SDS011;54051;53.464;49.532;2023-04-28T02:31:45;16.90;;;10.20;;
67130;SDS011;54051;53.464;49.532;2023-04-28T02:34:11;18.10;;;9.57;;
67130;SDS011;54051;53.464;49.532;2023-04-28T02:36:39;18.10;;;10.77;;
67130;SDS011;54051;53.464;49.532;2023-04-28T02:39:05;16.65;;;10.52;;
67130;SDS011;54051;53.464;49.532;2023-04-28T02:41:31;18.57;;;13.97;;
67130;SDS011;54051;53.464;49.532;2023-04-28T02:43:59;17.88;;;12.27;;
67130;SDS011;54051;53.464;49.532;2023-04-28T02:46:25;17.03;;;12.17;;
67130;SDS011;54051;53.464;49.532;2023-04-28T02:48:51;19.80;;;11.90;;
67130;SDS011;54051;53.464;49.532;2023-04-28T02:51:18;18.73;;;11.90;;
67130;SDS011;54051;53.464;49.532;2023-04-28T02:53:44;20.73;;;13.13;;
67130;SDS011;54051;53.464;49.532;2023-04-28T02:56:35;22.08;;;13.18;;
67130;SDS011;54051;53.464;49.532;2023-04-28T02:59:02;19.27;;;12.88;;
67130;SDS011;54051;53.464;49.532;2023-04-28T03:01:28;22.42;;;12.82;;
67130;SDS011;54051;53.464;49.532;2023-04-28T03:03:54;17.50;;;12.57;;
67130;SDS011;54051;53.464;49.532;2023-04-28T03:06:21;19.20;;;12.70;;
67130;SDS011;54051;53.464;49.532;2023-04-28T03:08:49;17.85;;;10.65;;
67130;SDS011;54051;53.464;49.532;2023-04-28T03:11:18;16.40;;;10.70;;
67130;SDS011;54051;53.464;49.532;2023-04-28T03:13:44;15.18;;;9.93;;
67130;SDS011;54051;53.464;49.532;2023-04-28T03:16:11;13.55;;;8.07;;
67130;SDS011;54051;53.464;49.532;2023-04-28T03:18:37;11.45;;;7.20;;
67130;SDS011;54051;53.464;49.532;2023-04-28T03:21:04;10.70;;;7.25;;
67130;SDS011;54051;53.464;49.532;2023-04-28T03:23:30;10.50;;;7.10;;
67130;SDS011;54051;53.464;49.532;2023-04-28T03:25:59;12.02;;;6.97;;
67130;SDS011;54051;53.464;49.532;2023-04-28T03:28:26;12.52;;;8.23;;
67130;SDS011;54051;53.464;49.532;2023-04-28T03:33:18;14.95;;;9.20;;
67130;SDS011;54051;53.464;49.532;2023-04-28T03:35:47;19.42;;;9.93;;
67130;SDS011;54051;53.464;49.532;2023-04-28T03:38:13;17.90;;;11.45;;
67130;SDS011;54051;53.464;49.532;2023-04-28T03:40:40;16.95;;;10.45;;
67130;SDS011;54051;53.464;49.532;2023-04-28T03:52:50;13.45;;;9.73;;
67130;SDS011;54051;53.464;49.532;2023-04-28T03:55:16;13.57;;;10.35;;
67130;SDS011;54051;53.464;49.532;2023-04-28T03:57:43;11.13;;;9.20;;
67130;SDS011;54051;53.464;49.532;2023-04-28T04:00:09;12.90;;;9.00;;
67130;SDS011;54051;53.464;49.532;2023-04-28T04:02:35;13.98;;;10.07;;
67130;SDS011;54051;53.464;49.532;2023-04-28T04:05:01;12.85;;;9.60;;
67130;SDS011;54051;53.464;49.532;2023-04-28T04:07:27;13.00;;;9.20;;
67130;SDS011;54051;53.464;49.532;2023-04-28T04:09:53;12.25;;;9.20;;
67130;SDS011;54051;53.464;49.532;2023-04-28T04:12:19;12.85;;;8.40;;
67130;SDS011;54051;53.464;49.532;2023-04-28T04:14:45;13.02;;;7.93;;
67130;SDS011;54051;53.464;49.532;2023-04-28T04:17:11;14.68;;;8.48;;
67130;SDS011;54051;53.464;49.532;2023-04-28T04:19:37;13.07;;;8.55;;
67130;SDS011;54051;53.464;49.532;2023-04-28T04:22:03;13.82;;;9.00;;
67130;SDS011;54051;53.464;49.532;2023-04-28T04:24:32;12.55;;;8.73;;
67130;SDS011;54051;53.464;49.532;2023-04-28T04:26:58;11.38;;;8.65;;
67130;SDS011;54051;53.464;49.532;2023-04-28T04:29:25;11.25;;;8.13;;
67130;SDS011;54051;53.464;49.532;2023-04-28T04:31:52;12.38;;;8.73;;
67130;SDS011;54051;53.464;49.532;2023-04-28T04:34:21;13.38;;;8.98;;
67130;SDS011;54051;53.464;49.532;2023-04-28T04:36:47;12.93;;;8.93;;
67130;SDS011;54051;53.464;49.532;2023-04-28T04:41:39;11.88;;;8.50;;
67130;SDS011;54051;53.464;49.532;2023-04-28T04:44:06;13.07;;;9.10;;
67130;SDS011;54051;53.464;49.532;2023-04-28T04:48:58;14.10;;;9.45;;
67130;SDS011;54051;53.464;49.532;2023-04-28T04:51:24;12.43;;;9.20;;
67130;SDS011;54051;53.464;49.532;2023-04-28T04:53:50;13.82;;;9.15;;
67130;SDS011;54051;53.464;49.532;2023-04-28T04:56:17;13.23;;;9.32;;
67130;SDS011;54051;53.464;49.532;2023-04-28T04:58:43;13.75;;;10.20;;
67130;SDS011;54051;53.464;49.532;2023-04-28T05:01:09;13.10;;;9.85;;
67130;SDS011;54051;53.464;49.532;2023-04-28T05:03:36;13.73;;;9.88;;
67130;SDS011;54051;53.464;49.532;2023-04-28T05:06:02;14.77;;;10.18;;
67130;SDS011;54051;53.464;49.532;2023-04-28T05:08:29;15.57;;;10.30;;
67130;SDS011;54051;53.464;49.532;2023-04-28T05:10:55;14.52;;;10.48;;
67130;SDS011;54051;53.464;49.532;2023-04-28T05:13:22;16.30;;;10.80;;
67130;SDS011;54051;53.464;49.532;2023-04-28T05:15:48;15.23;;;10.98;;
67130;SDS011;54051;53.464;49.532;2023-04-28T05:18:15;15.60;;;11.23;;
67130;SDS011;54051;53.464;49.532;2023-04-28T05:20:41;13.73;;;9.30;;
67130;SDS011;54051;53.464;49.532;2023-04-28T05:23:13;13.57;;;8.80;;
67130;SDS011;54051;53.464;49.532;2023-04-28T05:25:39;13.43;;;8.18;;
67130;SDS011;54051;53.464;49.532;2023-04-28T05:28:08;11.13;;;6.93;;
67130;SDS011;54051;53.464;49.532;2023-04-28T05:30:37;13.02;;;7.05;;
67130;SDS011;54051;53.464;49.532;2023-04-28T05:33:04;9.70;;;6.07;;
67130;SDS011;54051;53.464;49.532;2023-04-28T05:35:31;9.93;;;6.05;;
67130;SDS011;54051;53.464;49.532;2023-04-28T05:37:57;8.27;;;5.43;;
67130;SDS011;54051;53.464;49.532;2023-04-28T05:40:23;10.57;;;5.57;;
67130;SDS011;54051;53.464;49.532;2023-04-28T05:42:53;7.55;;;5.05;;
67130;SDS011;54051;53.464;49.532;2023-04-28T05:45:19;7.95;;;5.38;;
67130;SDS011;54051;53.464;49.532;2023-04-28T05:47:46;9.65;;;5.30;;
67130;SDS011;54051;53.464;49.532;2023-04-28T05:50:12;8.77;;;5.78;;
67130;SDS011;54051;53.464;49.532;2023-04-28T05:52:38;9.15;;;6.10;;
67130;SDS011;54051;53.464;49.532;2023-04-28T05:55:05;8.95;;;6.07;;
67130;SDS011;54051;53.464;49.532;2023-04-28T05:57:31;9.40;;;6.10;;
67130;SDS011;54051;53.464;49.532;2023-04-28T05:59:58;10.75;;;5.50;;
67130;SDS011;54051;53.464;49.532;2023-04-28T06:02:25;14.10;;;4.90;;
67130;SDS011;54051;53.464;49.532;2023-04-28T06:04:51;9.55;;;5.30;;
67130;SDS011;54051;53.464;49.532;2023-04-28T06:07:17;6.75;;;5.25;;
67130;SDS011;54051;53.464;49.532;2023-04-28T06:09:43;8.00;;;5.20;;
67130;SDS011;54051;53.464;49.532;2023-04-28T06:12:10;8.15;;;4.80;;
67130;SDS011;54051;53.464;49.532;2023-04-28T06:14:36;7.97;;;4.63;;
67130;SDS011;54051;53.464;49.532;2023-04-28T06:17:02;6.18;;;4.00;;
67130;SDS011;54051;53.464;49.532;2023-04-28T06:19:29;7.55;;;4.25;;
67130;SDS011;54051;53.464;49.532;2023-04-28T06:21:55;8.07;;;4.10;;
67130;SDS011;54051;53.464;49.532;2023-04-28T06:24:21;6.72;;;4.00;;
67130;SDS011;54051;53.464;49.532;2023-04-28T06:26:47;6.97;;;3.95;;
67130;SDS011;54051;53.464;49.532;2023-04-28T06:29:14;8.75;;;4.00;;
67130;SDS011;54051;53.464;49.532;2023-04-28T06:31:40;6.18;;;3.75;;
67130;SDS011;54051;53.464;49.532;2023-04-28T06:34:06;7.90;;;4.00;;
67130;SDS011;54051;53.464;49.532;2023-04-28T06:36:33;8.65;;;3.90;;
67130;SDS011;54051;53.464;49.532;2023-04-28T06:38:59;6.80;;;3.70;;
67130;SDS011;54051;53.464;49.532;2023-04-28T06:41:25;6.82;;;3.53;;
67130;SDS011;54051;53.464;49.532;2023-04-28T06:43:52;5.85;;;3.70;;
67130;SDS011;54051;53.464;49.532;2023-04-28T06:46:18;5.32;;;3.60;;
67130;SDS011;54051;53.464;49.532;2023-04-28T06:48:44;6.68;;;3.78;;
67130;SDS011;54051;53.464;49.532;2023-04-28T06:51:11;9.35;;;4.00;;
67130;SDS011;54051;53.464;49.532;2023-04-28T06:53:38;5.47;;;3.75;;
67130;SDS011;54051;53.464;49.532;2023-04-28T06:56:04;6.75;;;3.97;;
67130;SDS011;54051;53.464;49.532;2023-04-28T06:58:31;7.53;;;3.80;;
67130;SDS011;54051;53.464;49.532;2023-04-28T07:00:57;5.88;;;3.85;;
67130;SDS011;54051;53.464;49.532;2023-04-28T07:03:23;7.20;;;3.63;;
67130;SDS011;54051;53.464;49.532;2023-04-28T07:05:50;5.20;;;3.53;;
67130;SDS011;54051;53.464;49.532;2023-04-28T07:08:16;5.47;;;3.63;;
67130;SDS011;54051;53.464;49.532;2023-04-28T07:10:44;7.13;;;4.07;;
67130;SDS011;54051;53.464;49.532;2023-04-28T07:13:11;12.20;;;8.73;;
67130;SDS011;54051;53.464;49.532;2023-04-28T07:15:37;13.80;;;8.88;;
67130;SDS011;54051;53.464;49.532;2023-04-28T07:18:03;14.57;;;9.07;;
67130;SDS011;54051;53.464;49.532;2023-04-28T07:20:29;13.98;;;8.80;;
67130;SDS011;54051;53.464;49.532;2023-04-28T07:22:56;12.05;;;8.80;;
67130;SDS011;54051;53.464;49.532;2023-04-28T07:25:22;14.48;;;9.90;;
67130;SDS011;54051;53.464;49.532;2023-04-28T07:27:48;14.15;;;9.82;;
67130;SDS011;54051;53.464;49.532;2023-04-28T07:30:15;15.05;;;10.70;;
67130;SDS011;54051;53.464;49.532;2023-04-28T07:32:41;13.40;;;10.18;;
67130;SDS011;54051;53.464;49.532;2023-04-28T07:35:08;14.63;;;11.40;;
67130;SDS011;54051;53.464;49.532;2023-04-28T07:37:35;14.68;;;10.88;;
67130;SDS011;54051;53.464;49.532;2023-04-28T07:40:02;13.77;;;10.40;;
67130;SDS011;54051;53.464;49.532;2023-04-28T07:42:29;13.15;;;8.98;;
67130;SDS011;54051;53.464;49.532;2023-04-28T07:44:55;11.95;;;8.00;;
67130;SDS011;54051;53.464;49.532;2023-04-28T07:47:23;14.90;;;8.70;;
67130;SDS011;54051;53.464;49.532;2023-04-28T07:49:50;11.85;;;8.18;;
67130;SDS011;54051;53.464;49.532;2023-04-28T07:52:16;14.93;;;8.40;;
67130;SDS011;54051;53.464;49.532;2023-04-28T07:54:42;11.68;;;8.05;;
67130;SDS011;54051;53.464;49.532;2023-04-28T07:57:09;12.27;;;8.07;;
67130;SDS011;54051;53.464;49.532;2023-04-28T07:59:35;9.32;;;7.40;;
67130;SDS011;54051;53.464;49.532;2023-04-28T08:02:01;10.88;;;7.30;;
67130;SDS011;54051;53.464;49.532;2023-04-28T08:04:28;10.07;;;7.85;;
67130;SDS011;54051;53.464;49.532;2023-04-28T08:06:56;10.40;;;7.78;;
67130;SDS011;54051;53.464;49.532;2023-04-28T08:09:23;9.15;;;6.78;;
67130;SDS011;54051;53.464;49.532;2023-04-28T08:11:49;12.63;;;7.22;;
67130;SDS011;54051;53.464;49.532;2023-04-28T08:14:15;12.57;;;7.30;;
67130;SDS011;54051;53.464;49.532;2023-04-28T08:16:42;9.73;;;6.80;;
67130;SDS011;54051;53.464;49.532;2023-04-28T08:19:08;9.43;;;7.30;;
67130;SDS011;54051;53.464;49.532;2023-04-28T08:21:34;9.35;;;7.05;;
67130;SDS011;54051;53.464;49.532;2023-04-28T08:24:01;9.00;;;7.93;;
67130;SDS011;54051;53.464;49.532;2023-04-28T08:26:27;10.98;;;8.00;;
67130;SDS011;54051;53.464;49.532;2023-04-28T08:28:53;10.30;;;7.63;;
67130;SDS011;54051;53.464;49.532;2023-04-28T08:31:20;11.27;;;8.38;;
67130;SDS011;54051;53.464;49.532;2023-04-28T08:33:46;13.20;;;9.20;;
67130;SDS011;54051;53.464;49.532;2023-04-28T08:36:16;12.35;;;9.57;;
67130;SDS011;54051;53.464;49.532;2023-04-28T08:38:43;11.57;;;9.45;;
67130;SDS011;54051;53.464;49.532;2023-04-28T08:41:11;12.25;;;9.48;;
67130;SDS011;54051;53.464;49.532;2023-04-28T08:43:39;15.27;;;10.18;;
67130;SDS011;54051;53.464;49.532;2023-04-28T08:46:08;12.23;;;9.02;;
67130;SDS011;54051;53.464;49.532;2023-04-28T08:48:39;13.32;;;9.00;;
67130;SDS011;54051;53.464;49.532;2023-04-28T08:51:07;13.65;;;8.95;;
67130;SDS011;54051;53.464;49.532;2023-04-28T08:56:04;13.98;;;9.68;;
67130;SDS011;54051;53.464;49.532;2023-04-28T08:58:34;13.57;;;9.93;;
67130;SDS011;54051;53.464;49.532;2023-04-28T09:01:01;12.60;;;9.63;;
67130;SDS011;54051;53.464;49.532;2023-04-28T09:03:29;13.85;;;9.70;;
67130;SDS011;54051;53.464;49.532;2023-04-28T09:05:57;13.73;;;8.80;;
67130;SDS011;54051;53.464;49.532;2023-04-28T09:08:23;12.15;;;8.57;;
67130;SDS011;54051;53.464;49.532;2023-04-28T09:11:05;12.32;;;8.98;;
67130;SDS011;54051;53.464;49.532;2023-04-28T09:13:35;13.25;;;8.88;;
67130;SDS011;54051;53.464;49.532;2023-04-28T09:16:02;11.75;;;9.52;;
67130;SDS011;54051;53.464;49.532;2023-04-28T09:18:29;12.07;;;8.73;;
67130;SDS011;54051;53.464;49.532;2023-04-28T09:21:02;13.48;;;8.98;;
67130;SDS011;54051;53.464;49.532;2023-04-28T09:23:32;12.63;;;9.20;;
67130;SDS011;54051;53.464;49.532;2023-04-28T09:26:03;12.60;;;9.35;;
67130;SDS011;54051;53.464;49.532;2023-04-28T09:28:34;14.05;;;9.93;;
67130;SDS011;54051;53.464;49.532;2023-04-28T09:31:01;15.05;;;9.63;;
67130;SDS011;54051;53.464;49.532;2023-04-28T09:40:52;12.63;;;6.72;;
67130;SDS011;54051;53.464;49.532;2023-04-28T09:43:32;9.82;;;6.43;;
67130;SDS011;54051;53.464;49.532;2023-04-28T09:46:00;9.52;;;6.35;;
67130;SDS011;54051;53.464;49.532;2023-04-28T09:48:31;9.88;;;6.55;;
67130;SDS011;54051;53.464;49.532;2023-04-28T09:51:00;9.05;;;6.30;;
67130;SDS011;54051;53.464;49.532;2023-04-28T09:53:31;10.98;;;8.90;;
67130;SDS011;54051;53.464;49.532;2023-04-28T09:55:59;12.30;;;9.32;;
67130;SDS011;54051;53.464;49.532;2023-04-28T09:58:28;9.85;;;6.95;;
67130;SDS011;54051;53.464;49.532;2023-04-28T10:00:55;10.60;;;7.78;;
67130;SDS011;54051;53.464;49.532;2023-04-28T10:03:24;10.52;;;8.15;;
67130;SDS011;54051;53.464;49.532;2023-04-28T10:05:52;11.80;;;8.60;;
67130;SDS011;54051;53.464;49.532;2023-04-28T10:08:22;11.80;;;8.30;;
67130;SDS011;54051;53.464;49.532;2023-04-28T10:10:49;11.55;;;8.50;;
67130;SDS011;54051;53.464;49.532;2023-04-28T10:13:19;14.40;;;8.65;;
67130;SDS011;54051;53.464;49.532;2023-04-28T10:15:46;13.32;;;8.35;;
67130;SDS011;54051;53.464;49.532;2023-04-28T10:18:13;12.60;;;8.45;;
67130;SDS011;54051;53.464;49.532;2023-04-28T10:20:44;11.95;;;7.82;;
67130;SDS011;54051;53.464;49.532;2023-04-28T10:26:00;9.73;;;6.78;;
67130;SDS011;54051;53.464;49.532;2023-04-28T10:28:28;11.70;;;7.80;;
67130;SDS011;54051;53.464;49.532;2023-04-28T10:33:48;17.55;;;11.88;;
67130;SDS011;54051;53.464;49.532;2023-04-28T10:39:15;20.25;;;13.13;;
67130;SDS011;54051;53.464;49.532;2023-04-28T10:41:41;18.52;;;13.48;;
67130;SDS011;54051;53.464;49.532;2023-04-28T11:00:40;12.30;;;8.43;;
67130;SDS011;54051;53.464;49.532;2023-04-28T11:03:07;13.25;;;8.60;;
67130;SDS011;54051;53.464;49.532;2023-04-28T11:05:34;13.80;;;8.70;;
67130;SDS011;54051;53.464;49.532;2023-04-28T11:13:34;11.27;;;7.18;;
67130;SDS011;54051;53.464;49.532;2023-04-28T11:16:03;14.02;;;7.40;;
67130;SDS011;54051;53.464;49.532;2023-04-28T11:21:29;14.52;;;9.02;;
67130;SDS011;54051;53.464;49.532;2023-04-28T11:23:56;13.38;;;8.43;;
67130;SDS011;54051;53.464;49.532;2023-04-28T11:26:23;11.32;;;7.18;;
67130;SDS011;54051;53.464;49.532;2023-04-28T11:28:50;12.88;;;6.70;;
67130;SDS011;54051;53.464;49.532;2023-04-28T11:31:21;13.02;;;7.53;;
67130;SDS011;54051;53.464;49.532;2023-04-28T11:33:57;13.80;;;8.65;;
67130;SDS011;54051;53.464;49.532;2023-04-28T11:39:00;12.05;;;6.90;;
67130;SDS011;54051;53.464;49.532;2023-04-28T11:41:30;13.25;;;9.00;;
67130;SDS011;54051;53.464;49.532;2023-04-28T11:43:56;14.07;;;9.45;;
67130;SDS011;54051;53.464;49.532;2023-04-28T11:46:23;13.55;;;8.07;;
67130;SDS011;54051;53.464;49.532;2023-04-28T11:48:59;13.88;;;8.15;;
67130;SDS011;54051;53.464;49.532;2023-04-28T11:51:30;15.32;;;9.23;;
67130;SDS011;54051;53.464;49.532;2023-04-28T11:53:57;20.13;;;11.38;;
67130;SDS011;54051;53.464;49.532;2023-04-28T11:59:00;17.23;;;10.40;;
67130;SDS011;54051;53.464;49.532;2023-04-28T12:01:29;15.80;;;10.43;;
67130;SDS011;54051;53.464;49.532;2023-04-28T12:03:55;15.18;;;10.55;;
67130;SDS011;54051;53.464;49.532;2023-04-28T12:06:21;15.20;;;9.68;;
67130;SDS011;54051;53.464;49.532;2023-04-28T12:08:48;11.73;;;8.15;;
67130;SDS011;54051;53.464;49.532;2023-04-28T12:11:15;12.88;;;7.88;;
67130;SDS011;54051;53.464;49.532;2023-04-28T12:13:42;10.57;;;6.70;;
